»·PEaware :: COBRA21 KEND-KEND

COBRA21 :: KEND-KEND

FLIGHT INFORMATION

Flight Status: Arrived
Operator: Unknown
More flights by this operator :: More flights under this callsign
Pilot: Stephen H. (22241)
Aircraft: BEECH AIRCRAFT T-6A TEXAN
(TEX2)
More flights by this aircraft type
Origin: KEND Vance AFB
United States
Destination: KEND Vance AFB
United States
More flights between these airports :: More routes between these airports
Route: DF END6
File this flight plan on PilotEdge
Remarks:
Altitude:
(Current/Filed)
0ft
Speed:
(Current/Filed)
0kts
Departed: 05-Apr-21 11:55 AM
Arrived: 05-Apr-21 12:22 PM
Distance/Time
Traveled:
8nm/0:26
Distance/Time
To Go:
Arrived

Flight Plot

Page will automatically refresh every two minutes.

Flight plan parsing failed; only flown route is shown


Map Options




Map Legend


Flown Route
Filed Route
Departure Airport
Arrival Airport
Navaid (VOR, NDB)
Fix

Horizontal Profiles

Position Reports

Time Latitude Longitude Heading Altitude Ground
Speed
05-Apr-21 11:44 36.333430 -97.910261 270 1291ft 0kts
05-Apr-21 11:44 36.333430 -97.910261 270 1291ft 0kts
05-Apr-21 11:46 36.333430 -97.910261 270 1291ft 0kts
05-Apr-21 11:50 36.333430 -97.910261 270 1291ft 0kts
05-Apr-21 11:50 36.333430 -97.910261 270 1291ft 0kts
05-Apr-21 11:51 36.333430 -97.910261 270 1291ft 0kts
05-Apr-21 11:52 36.333431 -97.910274 280 1291ft 0kts
05-Apr-21 11:53 36.333426 -97.910451 260 1291ft 10kts
05-Apr-21 11:54 36.358115 -97.908777 7 1806ft 183kts
05-Apr-21 11:55 36.409852 -97.896556 9 4514ft 192kts
05-Apr-21 11:56 36.471645 -97.895445 336 5142ft 256kts
05-Apr-21 11:57 36.545690 -97.898643 4 5034ft 274kts
05-Apr-21 11:58 36.620082 -97.887763 3 4966ft 258kts
05-Apr-21 11:59 36.691786 -97.881347 0 3424ft 277kts
05-Apr-21 12:00 36.738625 -97.908819 272 2669ft 218kts
05-Apr-21 12:01 36.738216 -97.979089 265 2220ft 200kts
05-Apr-21 12:02 36.717965 -98.040215 216 2461ft 212kts
05-Apr-21 12:03 36.667297 -98.073065 266 2454ft 193kts
05-Apr-21 12:04 36.698314 -98.123022 353 2342ft 207kts
05-Apr-21 12:05 36.750551 -98.112163 82 2501ft 216kts
05-Apr-21 12:06 36.752711 -98.038532 90 5087ft 226kts
05-Apr-21 12:07 36.740791 -97.954616 122 6022ft 267kts
05-Apr-21 12:08 36.701000 -97.872235 134 6012ft 286kts
05-Apr-21 12:09 36.641256 -97.807302 161 6075ft 276kts
05-Apr-21 12:10 36.566284 -97.795356 180 6145ft 274kts
05-Apr-21 12:11 36.488836 -97.789374 179 6157ft 272kts
05-Apr-21 12:12 36.414364 -97.790867 184 6004ft 236kts
05-Apr-21 12:13 36.348848 -97.794094 187 5239ft 231kts
05-Apr-21 12:14 36.290939 -97.800706 191 5059ft 206kts
05-Apr-21 12:15 36.234149 -97.817794 203 4636ft 221kts
05-Apr-21 12:16 36.204498 -97.867786 268 2362ft 191kts
05-Apr-21 12:17 36.225674 -97.912360 349 2070ft 173kts
05-Apr-21 12:18 36.274948 -97.909524 2 1948ft 195kts
05-Apr-21 12:19 36.321509 -97.910998 357 1559ft 115kts
05-Apr-21 12:20 36.344479 -97.910934 358 1281ft 45kts
05-Apr-21 12:21 36.346787 -97.909973 108 1279ft 0kts
05-Apr-21 12:22 36.333430 -97.910261 270 1291ft 0kts
05-Apr-21 12:23 36.333430 -97.910261 270 1291ft 0kts
05-Apr-21 12:24 36.333430 -97.910261 270 1291ft 0kts
05-Apr-21 12:25 36.333430 -97.910261 270 1291ft 0kts
05-Apr-21 12:26 36.333430 -97.910261 270 1291ft 0kts
05-Apr-21 12:27 36.333430 -97.910261 270 1291ft 0kts
05-Apr-21 12:28 36.333859 -97.910979 349 1290ft 4kts
05-Apr-21 12:29 36.334968 -97.911334 348 1290ft 0kts
05-Apr-21 12:30 36.334968 -97.911334 348 1290ft 0kts
05-Apr-21 12:31 36.333430 -97.910261 270 1291ft 0kts
05-Apr-21 12:32 36.333489 -97.910714 294 1291ft 9kts
05-Apr-21 12:33 36.358204 -97.910108 359 1726ft 176kts
05-Apr-21 12:34 36.412347 -97.894253 10 3815ft 212kts
05-Apr-21 12:35 36.473789 -97.894749 329 5021ft 250kts

Navigation Log

Ident Type
Flight plan parsing failed, navigation log unavailable